sensor_id;sensor_type;location;lat;lon;timestamp;P1;durP1;ratioP1;P2;durP2;ratioP2
48042;SDS011;33988;47.992;8.820;2022-08-26T00:00:16;3.55;;;2.65;;
48042;SDS011;33988;47.992;8.820;2022-08-26T00:02:49;4.07;;;2.30;;
48042;SDS011;33988;47.992;8.820;2022-08-26T00:05:15;2.70;;;2.50;;
48042;SDS011;33988;47.992;8.820;2022-08-26T00:07:45;3.00;;;2.50;;
48042;SDS011;33988;47.992;8.820;2022-08-26T00:10:16;3.55;;;2.67;;
48042;SDS011;33988;47.992;8.820;2022-08-26T00:12:44;3.25;;;2.95;;
48042;SDS011;33988;47.992;8.820;2022-08-26T00:15:16;2.85;;;2.60;;
48042;SDS011;33988;47.992;8.820;2022-08-26T00:17:49;3.83;;;2.60;;
48042;SDS011;33988;47.992;8.820;2022-08-26T00:20:21;2.58;;;2.38;;
48042;SDS011;33988;47.992;8.820;2022-08-26T00:22:53;4.53;;;3.15;;
48042;SDS011;33988;47.992;8.820;2022-08-26T00:25:20;3.58;;;2.72;;
48042;SDS011;33988;47.992;8.820;2022-08-26T00:27:48;3.72;;;2.90;;
48042;SDS011;33988;47.992;8.820;2022-08-26T00:30:22;4.13;;;2.53;;
48042;SDS011;33988;47.992;8.820;2022-08-26T00:32:53;3.80;;;2.88;;
48042;SDS011;33988;47.992;8.820;2022-08-26T00:35:21;3.67;;;2.85;;
48042;SDS011;33988;47.992;8.820;2022-08-26T00:37:49;3.28;;;2.97;;
48042;SDS011;33988;47.992;8.820;2022-08-26T00:40:21;2.77;;;2.57;;
48042;SDS011;33988;47.992;8.820;2022-08-26T00:42:54;2.72;;;2.53;;
48042;SDS011;33988;47.992;8.820;2022-08-26T00:45:24;3.88;;;2.63;;
48042;SDS011;33988;47.992;8.820;2022-08-26T00:48:00;2.83;;;2.40;;
48042;SDS011;33988;47.992;8.820;2022-08-26T00:50:35;2.78;;;2.50;;
48042;SDS011;33988;47.992;8.820;2022-08-26T00:53:08;2.83;;;2.63;;
48042;SDS011;33988;47.992;8.820;2022-08-26T00:56:05;5.28;;;2.90;;
48042;SDS011;33988;47.992;8.820;2022-08-26T01:01:08;2.67;;;2.47;;
48042;SDS011;33988;47.992;8.820;2022-08-26T01:03:36;3.22;;;2.60;;
48042;SDS011;33988;47.992;8.820;2022-08-26T01:06:07;3.20;;;2.70;;
48042;SDS011;33988;47.992;8.820;2022-08-26T01:08:38;3.08;;;2.70;;
48042;SDS011;33988;47.992;8.820;2022-08-26T01:11:08;2.50;;;2.30;;
48042;SDS011;33988;47.992;8.820;2022-08-26T01:13:37;3.28;;;2.70;;
48042;SDS011;33988;47.992;8.820;2022-08-26T01:16:07;5.22;;;2.83;;
48042;SDS011;33988;47.992;8.820;2022-08-26T01:18:40;2.67;;;2.42;;
48042;SDS011;33988;47.992;8.820;2022-08-26T01:21:21;2.65;;;2.45;;
48042;SDS011;33988;47.992;8.820;2022-08-26T01:24:06;2.30;;;2.10;;
48042;SDS011;33988;47.992;8.820;2022-08-26T01:26:39;2.63;;;2.38;;
48042;SDS011;33988;47.992;8.820;2022-08-26T01:29:09;2.83;;;2.55;;
48042;SDS011;33988;47.992;8.820;2022-08-26T01:31:43;2.42;;;2.22;;
48042;SDS011;33988;47.992;8.820;2022-08-26T01:36:57;2.78;;;2.58;;
48042;SDS011;33988;47.992;8.820;2022-08-26T01:39:38;3.10;;;2.70;;
48042;SDS011;33988;47.992;8.820;2022-08-26T01:42:08;4.22;;;2.50;;
48042;SDS011;33988;47.992;8.820;2022-08-26T01:44:46;2.95;;;2.45;;
48042;SDS011;33988;47.992;8.820;2022-08-26T01:47:31;4.65;;;2.60;;
48042;SDS011;33988;47.992;8.820;2022-08-26T01:50:02;2.70;;;2.35;;
48042;SDS011;33988;47.992;8.820;2022-08-26T01:52:38;3.22;;;2.70;;
48042;SDS011;33988;47.992;8.820;2022-08-26T01:55:09;2.83;;;2.63;;
48042;SDS011;33988;47.992;8.820;2022-08-26T01:57:57;4.30;;;2.63;;
48042;SDS011;33988;47.992;8.820;2022-08-26T02:00:30;2.97;;;2.70;;
48042;SDS011;33988;47.992;8.820;2022-08-26T02:03:00;3.05;;;2.85;;
48042;SDS011;33988;47.992;8.820;2022-08-26T02:05:55;2.97;;;2.78;;
48042;SDS011;33988;47.992;8.820;2022-08-26T02:08:38;2.90;;;2.70;;
48042;SDS011;33988;47.992;8.820;2022-08-26T02:11:12;2.83;;;2.63;;
48042;SDS011;33988;47.992;8.820;2022-08-26T02:13:51;3.97;;;2.15;;
48042;SDS011;33988;47.992;8.820;2022-08-26T02:16:35;2.80;;;2.60;;
48042;SDS011;33988;47.992;8.820;2022-08-26T02:19:18;3.35;;;2.50;;
48042;SDS011;33988;47.992;8.820;2022-08-26T02:21:52;2.65;;;2.45;;
48042;SDS011;33988;47.992;8.820;2022-08-26T02:24:29;2.40;;;2.20;;
48042;SDS011;33988;47.992;8.820;2022-08-26T02:27:13;2.90;;;2.65;;
48042;SDS011;33988;47.992;8.820;2022-08-26T02:29:46;5.53;;;2.63;;
48042;SDS011;33988;47.992;8.820;2022-08-26T02:32:19;2.67;;;2.47;;
48042;SDS011;33988;47.992;8.820;2022-08-26T02:34:46;2.40;;;2.20;;
48042;SDS011;33988;47.992;8.820;2022-08-26T02:37:15;3.08;;;2.80;;
48042;SDS011;33988;47.992;8.820;2022-08-26T02:39:45;2.90;;;2.58;;
48042;SDS011;33988;47.992;8.820;2022-08-26T02:42:13;2.85;;;2.65;;
48042;SDS011;33988;47.992;8.820;2022-08-26T02:44:40;2.70;;;2.50;;
48042;SDS011;33988;47.992;8.820;2022-08-26T02:47:07;2.95;;;2.72;;
48042;SDS011;33988;47.992;8.820;2022-08-26T02:49:39;3.67;;;2.67;;
48042;SDS011;33988;47.992;8.820;2022-08-26T02:52:12;2.75;;;2.55;;
48042;SDS011;33988;47.992;8.820;2022-08-26T02:54:39;2.90;;;2.60;;
48042;SDS011;33988;47.992;8.820;2022-08-26T02:57:06;2.78;;;2.45;;
48042;SDS011;33988;47.992;8.820;2022-08-26T02:59:35;2.65;;;2.45;;
48042;SDS011;33988;47.992;8.820;2022-08-26T03:02:05;3.05;;;2.75;;
48042;SDS011;33988;47.992;8.820;2022-08-26T03:04:32;12.27;;;3.00;;
48042;SDS011;33988;47.992;8.820;2022-08-26T03:06:59;3.47;;;2.50;;
48042;SDS011;33988;47.992;8.820;2022-08-26T03:09:26;2.58;;;2.38;;
48042;SDS011;33988;47.992;8.820;2022-08-26T03:14:25;2.40;;;2.20;;
48042;SDS011;33988;47.992;8.820;2022-08-26T03:16:55;2.58;;;2.35;;
48042;SDS011;33988;47.992;8.820;2022-08-26T03:19:22;3.00;;;2.63;;
48042;SDS011;33988;47.992;8.820;2022-08-26T03:21:54;2.90;;;2.70;;
48042;SDS011;33988;47.992;8.820;2022-08-26T03:24:23;2.60;;;2.35;;
48042;SDS011;33988;47.992;8.820;2022-08-26T03:26:51;2.30;;;2.10;;
48042;SDS011;33988;47.992;8.820;2022-08-26T03:29:18;2.50;;;2.30;;
48042;SDS011;33988;47.992;8.820;2022-08-26T03:32:06;2.45;;;2.25;;
48042;SDS011;33988;47.992;8.820;2022-08-26T03:34:35;2.85;;;2.55;;
48042;SDS011;33988;47.992;8.820;2022-08-26T03:37:03;6.97;;;2.83;;
48042;SDS011;33988;47.992;8.820;2022-08-26T03:39:35;3.05;;;2.65;;
48042;SDS011;33988;47.992;8.820;2022-08-26T03:42:05;3.30;;;2.63;;
48042;SDS011;33988;47.992;8.820;2022-08-26T03:44:32;2.92;;;2.63;;
48042;SDS011;33988;47.992;8.820;2022-08-26T03:47:07;3.13;;;2.83;;
48042;SDS011;33988;47.992;8.820;2022-08-26T03:49:36;3.35;;;3.05;;
48042;SDS011;33988;47.992;8.820;2022-08-26T03:52:07;3.00;;;2.67;;
48042;SDS011;33988;47.992;8.820;2022-08-26T03:54:35;3.13;;;2.83;;
48042;SDS011;33988;47.992;8.820;2022-08-26T03:57:03;3.47;;;2.90;;
48042;SDS011;33988;47.992;8.820;2022-08-26T03:59:30;2.85;;;2.65;;
48042;SDS011;33988;47.992;8.820;2022-08-26T04:02:00;3.33;;;2.72;;
48042;SDS011;33988;47.992;8.820;2022-08-26T04:04:27;3.72;;;2.50;;
48042;SDS011;33988;47.992;8.820;2022-08-26T04:06:59;6.03;;;2.65;;
48042;SDS011;33988;47.992;8.820;2022-08-26T04:09:26;3.10;;;2.55;;
48042;SDS011;33988;47.992;8.820;2022-08-26T04:11:54;3.10;;;2.45;;
48042;SDS011;33988;47.992;8.820;2022-08-26T04:14:25;3.17;;;2.88;;
48042;SDS011;33988;47.992;8.820;2022-08-26T04:16:55;2.67;;;2.45;;
48042;SDS011;33988;47.992;8.820;2022-08-26T04:19:25;2.78;;;2.50;;
48042;SDS011;33988;47.992;8.820;2022-08-26T04:21:52;3.17;;;2.88;;
48042;SDS011;33988;47.992;8.820;2022-08-26T04:24:23;3.50;;;2.80;;
48042;SDS011;33988;47.992;8.820;2022-08-26T04:26:53;3.72;;;2.70;;
48042;SDS011;33988;47.992;8.820;2022-08-26T04:29:22;2.88;;;2.67;;
48042;SDS011;33988;47.992;8.820;2022-08-26T04:31:52;2.83;;;2.63;;
48042;SDS011;33988;47.992;8.820;2022-08-26T04:34:24;3.33;;;3.03;;
48042;SDS011;33988;47.992;8.820;2022-08-26T04:36:54;3.20;;;2.90;;
48042;SDS011;33988;47.992;8.820;2022-08-26T04:39:23;3.33;;;2.95;;
48042;SDS011;33988;47.992;8.820;2022-08-26T04:41:53;2.72;;;2.50;;
48042;SDS011;33988;47.992;8.820;2022-08-26T04:44:23;2.70;;;2.47;;
48042;SDS011;33988;47.992;8.820;2022-08-26T04:46:53;2.65;;;2.45;;
48042;SDS011;33988;47.992;8.820;2022-08-26T04:49:21;2.90;;;2.60;;
48042;SDS011;33988;47.992;8.820;2022-08-26T04:51:51;2.67;;;2.45;;
48042;SDS011;33988;47.992;8.820;2022-08-26T04:54:21;3.00;;;2.63;;
48042;SDS011;33988;47.992;8.820;2022-08-26T04:56:50;2.85;;;2.65;;
48042;SDS011;33988;47.992;8.820;2022-08-26T04:59:17;2.80;;;2.60;;
48042;SDS011;33988;47.992;8.820;2022-08-26T05:01:45;2.60;;;2.40;;
48042;SDS011;33988;47.992;8.820;2022-08-26T05:04:16;3.00;;;2.70;;
48042;SDS011;33988;47.992;8.820;2022-08-26T05:06:45;3.45;;;3.10;;
48042;SDS011;33988;47.992;8.820;2022-08-26T05:09:25;2.67;;;2.45;;
48042;SDS011;33988;47.992;8.820;2022-08-26T05:11:52;4.50;;;2.85;;
48042;SDS011;33988;47.992;8.820;2022-08-26T05:14:20;3.08;;;2.78;;
48042;SDS011;33988;47.992;8.820;2022-08-26T05:16:49;3.42;;;3.10;;
48042;SDS011;33988;47.992;8.820;2022-08-26T05:19:17;2.70;;;2.50;;
48042;SDS011;33988;47.992;8.820;2022-08-26T05:21:45;3.08;;;2.78;;
48042;SDS011;33988;47.992;8.820;2022-08-26T05:24:14;2.90;;;2.38;;
48042;SDS011;33988;47.992;8.820;2022-08-26T05:26:43;3.08;;;2.78;;
48042;SDS011;33988;47.992;8.820;2022-08-26T05:29:13;12.75;;;3.97;;
48042;SDS011;33988;47.992;8.820;2022-08-26T05:31:45;2.97;;;2.67;;
48042;SDS011;33988;47.992;8.820;2022-08-26T05:34:15;2.60;;;2.40;;
48042;SDS011;33988;47.992;8.820;2022-08-26T05:36:45;3.47;;;2.72;;
48042;SDS011;33988;47.992;8.820;2022-08-26T05:39:15;4.63;;;2.70;;
48042;SDS011;33988;47.992;8.820;2022-08-26T05:41:42;2.85;;;2.65;;
48042;SDS011;33988;47.992;8.820;2022-08-26T05:44:11;3.80;;;2.70;;
48042;SDS011;33988;47.992;8.820;2022-08-26T05:46:41;2.78;;;2.58;;
48042;SDS011;33988;47.992;8.820;2022-08-26T05:49:10;7.43;;;2.40;;
48042;SDS011;33988;47.992;8.820;2022-08-26T05:51:41;4.03;;;3.15;;
48042;SDS011;33988;47.992;8.820;2022-08-26T05:54:15;3.40;;;2.85;;
48042;SDS011;33988;47.992;8.820;2022-08-26T05:56:48;3.88;;;3.00;;
48042;SDS011;33988;47.992;8.820;2022-08-26T05:59:18;4.13;;;3.72;;
48042;SDS011;33988;47.992;8.820;2022-08-26T06:01:50;4.72;;;3.30;;
48042;SDS011;33988;47.992;8.820;2022-08-26T06:04:18;5.75;;;3.05;;
48042;SDS011;33988;47.992;8.820;2022-08-26T06:06:45;6.00;;;3.30;;
48042;SDS011;33988;47.992;8.820;2022-08-26T06:09:12;5.22;;;2.90;;
48042;SDS011;33988;47.992;8.820;2022-08-26T06:11:43;5.30;;;3.03;;
48042;SDS011;33988;47.992;8.820;2022-08-26T06:14:10;3.10;;;2.80;;
48042;SDS011;33988;47.992;8.820;2022-08-26T06:16:41;6.90;;;2.75;;
48042;SDS011;33988;47.992;8.820;2022-08-26T06:19:10;3.05;;;2.72;;
48042;SDS011;33988;47.992;8.820;2022-08-26T06:21:40;3.63;;;3.00;;
48042;SDS011;33988;47.992;8.820;2022-08-26T06:24:18;2.63;;;2.38;;
48042;SDS011;33988;47.992;8.820;2022-08-26T06:27:05;2.97;;;2.78;;
48042;SDS011;33988;47.992;8.820;2022-08-26T06:32:03;2.65;;;2.45;;
48042;SDS011;33988;47.992;8.820;2022-08-26T06:34:36;2.85;;;2.63;;
48042;SDS011;33988;47.992;8.820;2022-08-26T06:39:34;3.92;;;2.60;;
48042;SDS011;33988;47.992;8.820;2022-08-26T06:42:06;4.38;;;2.70;;
48042;SDS011;33988;47.992;8.820;2022-08-26T06:44:33;3.65;;;2.88;;
48042;SDS011;33988;47.992;8.820;2022-08-26T06:47:06;5.05;;;3.63;;
48042;SDS011;33988;47.992;8.820;2022-08-26T06:52:06;4.13;;;3.05;;
48042;SDS011;33988;47.992;8.820;2022-08-26T06:54:36;4.20;;;3.80;;
48042;SDS011;33988;47.992;8.820;2022-08-26T06:57:08;5.53;;;3.85;;
48042;SDS011;33988;47.992;8.820;2022-08-26T06:59:41;8.20;;;4.07;;
48042;SDS011;33988;47.992;8.820;2022-08-26T07:02:09;5.53;;;3.63;;
48042;SDS011;33988;47.992;8.820;2022-08-26T07:04:38;3.67;;;3.38;;
48042;SDS011;33988;47.992;8.820;2022-08-26T07:07:06;4.88;;;4.22;;
48042;SDS011;33988;47.992;8.820;2022-08-26T07:09:34;5.05;;;3.22;;
48042;SDS011;33988;47.992;8.820;2022-08-26T07:12:02;5.90;;;3.53;;
48042;SDS011;33988;47.992;8.820;2022-08-26T07:14:32;5.60;;;4.10;;
48042;SDS011;33988;47.992;8.820;2022-08-26T07:17:00;4.75;;;4.25;;
48042;SDS011;33988;47.992;8.820;2022-08-26T07:19:35;6.68;;;4.45;;
48042;SDS011;33988;47.992;8.820;2022-08-26T07:22:03;5.13;;;4.38;;
48042;SDS011;33988;47.992;8.820;2022-08-26T07:24:34;6.20;;;4.15;;
48042;SDS011;33988;47.992;8.820;2022-08-26T07:27:09;5.53;;;4.45;;
48042;SDS011;33988;47.992;8.820;2022-08-26T07:29:42;4.30;;;3.90;;
48042;SDS011;33988;47.992;8.820;2022-08-26T07:32:11;4.70;;;4.10;;
48042;SDS011;33988;47.992;8.820;2022-08-26T07:34:45;4.32;;;3.78;;
48042;SDS011;33988;47.992;8.820;2022-08-26T07:37:12;4.57;;;4.18;;
48042;SDS011;33988;47.992;8.820;2022-08-26T07:39:43;4.22;;;3.60;;
48042;SDS011;33988;47.992;8.820;2022-08-26T07:42:15;4.82;;;3.53;;
48042;SDS011;33988;47.992;8.820;2022-08-26T07:44:44;3.65;;;3.22;;
48042;SDS011;33988;47.992;8.820;2022-08-26T07:47:14;5.47;;;4.13;;
48042;SDS011;33988;47.992;8.820;2022-08-26T07:49:52;4.28;;;3.88;;
48042;SDS011;33988;47.992;8.820;2022-08-26T07:52:21;3.75;;;3.33;;
48042;SDS011;33988;47.992;8.820;2022-08-26T07:57:25;2.58;;;2.38;;
48042;SDS011;33988;47.992;8.820;2022-08-26T07:59:54;3.97;;;2.80;;
48042;SDS011;33988;47.992;8.820;2022-08-26T08:02:24;3.35;;;2.63;;
48042;SDS011;33988;47.992;8.820;2022-08-26T08:04:56;2.75;;;2.55;;
48042;SDS011;33988;47.992;8.820;2022-08-26T08:07:24;2.60;;;2.13;;
48042;SDS011;33988;47.992;8.820;2022-08-26T08:10:11;2.30;;;2.10;;
48042;SDS011;33988;47.992;8.820;2022-08-26T08:12:43;2.67;;;2.47;;
48042;SDS011;33988;47.992;8.820;2022-08-26T08:15:14;3.83;;;2.50;;
48042;SDS011;33988;47.992;8.820;2022-08-26T08:17:46;2.75;;;2.55;;
48042;SDS011;33988;47.992;8.820;2022-08-26T08:20:16;2.72;;;2.20;;
48042;SDS011;33988;47.992;8.820;2022-08-26T08:22:44;2.20;;;2.10;;
48042;SDS011;33988;47.992;8.820;2022-08-26T08:25:13;2.70;;;2.50;;
48042;SDS011;33988;47.992;8.820;2022-08-26T08:27:41;5.60;;;2.90;;
48042;SDS011;33988;47.992;8.820;2022-08-26T08:30:11;5.68;;;3.30;;
48042;SDS011;33988;47.992;8.820;2022-08-26T08:32:48;2.95;;;2.72;;
48042;SDS011;33988;47.992;8.820;2022-08-26T08:35:17;3.05;;;2.78;;
48042;SDS011;33988;47.992;8.820;2022-08-26T08:37:47;3.47;;;2.70;;
48042;SDS011;33988;47.992;8.820;2022-08-26T08:40:20;2.92;;;2.72;;
48042;SDS011;33988;47.992;8.820;2022-08-26T08:42:58;4.00;;;3.08;;
48042;SDS011;33988;47.992;8.820;2022-08-26T08:50:54;3.42;;;2.53;;
48042;SDS011;33988;47.992;8.820;2022-08-26T09:07:52;2.08;;;1.90;;
48042;SDS011;33988;47.992;8.820;2022-08-26T09:13:14;2.20;;;2.00;;
48042;SDS011;33988;47.992;8.820;2022-08-26T09:21:30;2.53;;;2.33;;
48042;SDS011;33988;47.992;8.820;2022-08-26T09:23:58;2.40;;;2.20;;
48042;SDS011;33988;47.992;8.820;2022-08-26T09:31:49;2.42;;;2.22;;
48042;SDS011;33988;47.992;8.820;2022-08-26T09:47:27;3.72;;;2.17;;
48042;SDS011;33988;47.992;8.820;2022-08-26T09:50:18;3.75;;;2.40;;
48042;SDS011;33988;47.992;8.820;2022-08-26T09:55:41;2.40;;;2.15;;
48042;SDS011;33988;47.992;8.820;2022-08-26T09:58:31;2.45;;;2.25;;
48042;SDS011;33988;47.992;8.820;2022-08-26T10:01:04;2.22;;;2.03;;
48042;SDS011;33988;47.992;8.820;2022-08-26T10:03:44;2.10;;;1.90;;
48042;SDS011;33988;47.992;8.820;2022-08-26T10:08:50;1.92;;;1.83;;
48042;SDS011;33988;47.992;8.820;2022-08-26T10:11:23;2.10;;;1.90;;
48042;SDS011;33988;47.992;8.820;2022-08-26T10:14:00;2.35;;;2.15;;
48042;SDS011;33988;47.992;8.820;2022-08-26T10:19:21;2.22;;;1.67;;
48042;SDS011;33988;47.992;8.820;2022-08-26T10:25:47;2.00;;;1.90;;
48042;SDS011;33988;47.992;8.820;2022-08-26T10:28:32;2.15;;;1.85;;
48042;SDS011;33988;47.992;8.820;2022-08-26T10:31:28;2.50;;;1.85;;
48042;SDS011;33988;47.992;8.820;2022-08-26T10:34:13;2.08;;;1.98;;
48042;SDS011;33988;47.992;8.820;2022-08-26T10:36:57;3.25;;;2.03;;
48042;SDS011;33988;47.992;8.820;2022-08-26T10:39:47;3.40;;;1.95;;
48042;SDS011;33988;47.992;8.820;2022-08-26T10:42:36;2.30;;;1.90;;
48042;SDS011;33988;47.992;8.820;2022-08-26T10:47:54;1.92;;;1.83;;
48042;SDS011;33988;47.992;8.820;2022-08-26T10:50:26;1.95;;;1.85;;
48042;SDS011;33988;47.992;8.820;2022-08-26T10:53:00;2.00;;;1.90;;
48042;SDS011;33988;47.992;8.820;2022-08-26T11:01:56;1.83;;;1.73;;
48042;SDS011;33988;47.992;8.820;2022-08-26T11:04:54;5.40;;;2.00;;
48042;SDS011;33988;47.992;8.820;2022-08-26T11:12:48;1.95;;;1.85;;
48042;SDS011;33988;47.992;8.820;2022-08-26T11:18:34;2.30;;;2.10;;
48042;SDS011;33988;47.992;8.820;2022-08-26T11:21:41;2.10;;;1.98;;
48042;SDS011;33988;47.992;8.820;2022-08-26T11:24:06;2.30;;;2.10;;
48042;SDS011;33988;47.992;8.820;2022-08-26T11:27:09;2.78;;;2.33;;
48042;SDS011;33988;47.992;8.820;2022-08-26T11:40:16;2.80;;;2.60;;
48042;SDS011;33988;47.992;8.820;2022-08-26T11:42:52;9.38;;;4.15;;
48042;SDS011;33988;47.992;8.820;2022-08-26T11:45:30;3.75;;;2.70;;
48042;SDS011;33988;47.992;8.820;2022-08-26T11:53:32;4.57;;;2.40;;
48042;SDS011;33988;47.992;8.820;2022-08-26T11:56:04;3.90;;;2.75;;
48042;SDS011;33988;47.992;8.820;2022-08-26T11:58:43;2.78;;;2.58;;
48042;SDS011;33988;47.992;8.820;2022-08-26T12:01:31;2.55;;;2.35;;
48042;SDS011;33988;47.992;8.820;2022-08-26T12:04:02;5.18;;;2.83;;
48042;SDS011;33988;47.992;8.820;2022-08-26T12:12:13;2.25;;;2.05;;
48042;SDS011;33988;47.992;8.820;2022-08-26T12:17:39;2.58;;;1.92;;
48042;SDS011;33988;47.992;8.820;2022-08-26T12:23:24;2.10;;;1.90;;
48042;SDS011;33988;47.992;8.820;2022-08-26T12:26:03;2.40;;;2.20;;
48042;SDS011;33988;47.992;8.820;2022-08-26T12:31:18;2.53;;;1.92;;
48042;SDS011;33988;47.992;8.820;2022-08-26T12:33:51;2.55;;;2.03;;
48042;SDS011;33988;47.992;8.820;2022-08-26T12:36:37;3.08;;;2.30;;
48042;SDS011;33988;47.992;8.820;2022-08-26T12:39:12;2.55;;;2.28;;
48042;SDS011;33988;47.992;8.820;2022-08-26T12:41:53;2.38;;;2.13;;
48042;SDS011;33988;47.992;8.820;2022-08-26T12:47:04;3.30;;;2.25;;
48042;SDS011;33988;47.992;8.820;2022-08-26T12:53:24;1.88;;;1.70;;
48042;SDS011;33988;47.992;8.820;2022-08-26T12:55:55;2.05;;;1.85;;
48042;SDS011;33988;47.992;8.820;2022-08-26T12:58:32;1.92;;;1.75;;
48042;SDS011;33988;47.992;8.820;2022-08-26T13:08:55;2.15;;;1.95;;
48042;SDS011;33988;47.992;8.820;2022-08-26T13:14:11;2.25;;;1.85;;
48042;SDS011;33988;47.992;8.820;2022-08-26T13:16:49;2.17;;;1.98;;
48042;SDS011;33988;47.992;8.820;2022-08-26T13:19:19;2.33;;;2.13;;
48042;SDS011;33988;47.992;8.820;2022-08-26T13:21:50;3.50;;;2.50;;
48042;SDS011;33988;47.992;8.820;2022-08-26T13:27:01;4.03;;;2.30;;
48042;SDS011;33988;47.992;8.820;2022-08-26T13:29:32;4.22;;;2.95;;
48042;SDS011;33988;47.992;8.820;2022-08-26T13:32:02;2.63;;;2.42;;
48042;SDS011;33988;47.992;8.820;2022-08-26T13:34:30;2.58;;;2.30;;
48042;SDS011;33988;47.992;8.820;2022-08-26T13:36:57;3.60;;;2.78;;
48042;SDS011;33988;47.992;8.820;2022-08-26T13:39:25;2.80;;;2.60;;
48042;SDS011;33988;47.992;8.820;2022-08-26T13:41:54;3.75;;;2.78;;
48042;SDS011;33988;47.992;8.820;2022-08-26T13:44:25;3.30;;;2.55;;
48042;SDS011;33988;47.992;8.820;2022-08-26T13:46:54;2.45;;;2.25;;
48042;SDS011;33988;47.992;8.820;2022-08-26T13:49:21;3.13;;;2.65;;
48042;SDS011;33988;47.992;8.820;2022-08-26T13:51:48;2.83;;;2.53;;
48042;SDS011;33988;47.992;8.820;2022-08-26T13:54:15;2.58;;;2.38;;
48042;SDS011;33988;47.992;8.820;2022-08-26T13:56:45;2.63;;;2.42;;
48042;SDS011;33988;47.992;8.820;2022-08-26T13:59:14;2.92;;;2.53;;
48042;SDS011;33988;47.992;8.820;2022-08-26T14:01:41;2.42;;;2.22;;
48042;SDS011;33988;47.992;8.820;2022-08-26T14:04:08;2.60;;;2.33;;
48042;SDS011;33988;47.992;8.820;2022-08-26T14:06:38;2.92;;;2.65;;
48042;SDS011;33988;47.992;8.820;2022-08-26T14:09:05;3.10;;;2.75;;
48042;SDS011;33988;47.992;8.820;2022-08-26T14:11:32;2.60;;;2.40;;
48042;SDS011;33988;47.992;8.820;2022-08-26T14:14:19;2.55;;;2.33;;
48042;SDS011;33988;47.992;8.820;2022-08-26T14:16:46;4.47;;;2.58;;
48042;SDS011;33988;47.992;8.820;2022-08-26T14:19:25;2.55;;;2.20;;
48042;SDS011;33988;47.992;8.820;2022-08-26T14:21:55;4.47;;;2.80;;
48042;SDS011;33988;47.992;8.820;2022-08-26T14:24:25;2.78;;;2.50;;
48042;SDS011;33988;47.992;8.820;2022-08-26T14:26:52;4.88;;;2.72;;
48042;SDS011;33988;47.992;8.820;2022-08-26T14:29:19;2.88;;;2.25;;
48042;SDS011;33988;47.992;8.820;2022-08-26T14:31:46;3.75;;;2.47;;
48042;SDS011;33988;47.992;8.820;2022-08-26T14:34:13;2.35;;;2.15;;
48042;SDS011;33988;47.992;8.820;2022-08-26T14:36:43;2.13;;;1.98;;
48042;SDS011;33988;47.992;8.820;2022-08-26T14:39:10;2.30;;;2.10;;
48042;SDS011;33988;47.992;8.820;2022-08-26T14:41:43;2.60;;;2.35;;
48042;SDS011;33988;47.992;8.820;2022-08-26T14:44:20;2.80;;;2.60;;
48042;SDS011;33988;47.992;8.820;2022-08-26T14:46:53;3.17;;;2.58;;
48042;SDS011;33988;47.992;8.820;2022-08-26T14:49:21;2.35;;;2.15;;
48042;SDS011;33988;47.992;8.820;2022-08-26T14:51:49;5.22;;;2.40;;
48042;SDS011;33988;47.992;8.820;2022-08-26T14:54:17;2.65;;;2.45;;
48042;SDS011;33988;47.992;8.820;2022-08-26T14:56:46;2.80;;;2.60;;
48042;SDS011;33988;47.992;8.820;2022-08-26T14:59:25;2.65;;;2.45;;
48042;SDS011;33988;47.992;8.820;2022-08-26T15:02:00;3.17;;;2.50;;
48042;SDS011;33988;47.992;8.820;2022-08-26T15:06:58;2.50;;;2.30;;
48042;SDS011;33988;47.992;8.820;2022-08-26T15:09:29;3.20;;;2.50;;
48042;SDS011;33988;47.992;8.820;2022-08-26T15:12:02;3.28;;;2.83;;
48042;SDS011;33988;47.992;8.820;2022-08-26T15:14:32;2.67;;;2.47;;
48042;SDS011;33988;47.992;8.820;2022-08-26T15:17:02;2.85;;;2.60;;
48042;SDS011;33988;47.992;8.820;2022-08-26T15:19:36;3.78;;;2.80;;
48042;SDS011;33988;47.992;8.820;2022-08-26T15:22:04;3.50;;;2.75;;
48042;SDS011;33988;47.992;8.820;2022-08-26T15:24:31;11.02;;;3.45;;
48042;SDS011;33988;47.992;8.820;2022-08-26T15:26:58;7.03;;;3.03;;
48042;SDS011;33988;47.992;8.820;2022-08-26T15:29:29;5.95;;;2.83;;
48042;SDS011;33988;47.992;8.820;2022-08-26T15:32:01;4.88;;;3.10;;
48042;SDS011;33988;47.992;8.820;2022-08-26T15:34:31;10.25;;;3.13;;
48042;SDS011;33988;47.992;8.820;2022-08-26T15:36:58;5.35;;;3.20;;
48042;SDS011;33988;47.992;8.820;2022-08-26T15:39:25;3.53;;;3.00;;
48042;SDS011;33988;47.992;8.820;2022-08-26T15:41:56;4.18;;;2.95;;
48042;SDS011;33988;47.992;8.820;2022-08-26T15:44:25;5.20;;;2.95;;
48042;SDS011;33988;47.992;8.820;2022-08-26T15:46:55;3.35;;;3.05;;
48042;SDS011;33988;47.992;8.820;2022-08-26T15:51:55;3.97;;;2.65;;
48042;SDS011;33988;47.992;8.820;2022-08-26T15:54:22;3.40;;;3.10;;
48042;SDS011;33988;47.992;8.820;2022-08-26T15:56:49;4.20;;;2.90;;
48042;SDS011;33988;47.992;8.820;2022-08-26T15:59:21;4.65;;;3.63;;
48042;SDS011;33988;47.992;8.820;2022-08-26T16:01:48;3.25;;;3.00;;
48042;SDS011;33988;47.992;8.820;2022-08-26T16:04:19;3.37;;;3.07;;
48042;SDS011;33988;47.992;8.820;2022-08-26T16:06:48;3.28;;;2.97;;
48042;SDS011;33988;47.992;8.820;2022-08-26T16:09:18;3.70;;;3.30;;
48042;SDS011;33988;47.992;8.820;2022-08-26T16:11:53;3.50;;;3.20;;
48042;SDS011;33988;47.992;8.820;2022-08-26T16:14:21;3.42;;;3.13;;
48042;SDS011;33988;47.992;8.820;2022-08-26T16:16:49;5.10;;;3.47;;
48042;SDS011;33988;47.992;8.820;2022-08-26T16:19:18;7.50;;;3.50;;
48042;SDS011;33988;47.992;8.820;2022-08-26T16:21:49;3.17;;;2.87;;
48042;SDS011;33988;47.992;8.820;2022-08-26T16:24:17;3.85;;;3.50;;
48042;SDS011;33988;47.992;8.820;2022-08-26T16:26:52;3.25;;;2.95;;
48042;SDS011;33988;47.992;8.820;2022-08-26T16:29:19;3.80;;;3.47;;
48042;SDS011;33988;47.992;8.820;2022-08-26T16:31:46;3.33;;;3.03;;
48042;SDS011;33988;47.992;8.820;2022-08-26T16:34:22;3.65;;;3.30;;
48042;SDS011;33988;47.992;8.820;2022-08-26T16:36:49;3.90;;;3.28;;
48042;SDS011;33988;47.992;8.820;2022-08-26T16:39:22;3.95;;;3.13;;
48042;SDS011;33988;47.992;8.820;2022-08-26T16:41:51;4.10;;;3.25;;
48042;SDS011;33988;47.992;8.820;2022-08-26T16:44:18;4.38;;;3.55;;
48042;SDS011;33988;47.992;8.820;2022-08-26T16:46:49;4.00;;;3.20;;
48042;SDS011;33988;47.992;8.820;2022-08-26T16:49:23;4.50;;;3.85;;
48042;SDS011;33988;47.992;8.820;2022-08-26T16:51:50;3.83;;;3.45;;
48042;SDS011;33988;47.992;8.820;2022-08-26T16:54:17;3.55;;;3.25;;
48042;SDS011;33988;47.992;8.820;2022-08-26T16:56:44;3.30;;;3.00;;
48042;SDS011;33988;47.992;8.820;2022-08-26T16:59:13;3.00;;;2.70;;
48042;SDS011;33988;47.992;8.820;2022-08-26T17:01:40;3.38;;;3.13;;
48042;SDS011;33988;47.992;8.820;2022-08-26T17:04:10;3.85;;;3.45;;
48042;SDS011;33988;47.992;8.820;2022-08-26T17:06:37;3.28;;;2.97;;
48042;SDS011;33988;47.992;8.820;2022-08-26T17:09:05;2.88;;;2.60;;
48042;SDS011;33988;47.992;8.820;2022-08-26T17:11:33;3.45;;;2.70;;
48042;SDS011;33988;47.992;8.820;2022-08-26T17:14:02;3.40;;;3.08;;
48042;SDS011;33988;47.992;8.820;2022-08-26T17:16:31;4.10;;;2.88;;
48042;SDS011;33988;47.992;8.820;2022-08-26T17:18:58;4.38;;;3.05;;
48042;SDS011;33988;47.992;8.820;2022-08-26T17:21:31;3.72;;;2.85;;
48042;SDS011;33988;47.992;8.820;2022-08-26T17:24:02;5.32;;;3.20;;
48042;SDS011;33988;47.992;8.820;2022-08-26T17:26:30;3.40;;;3.10;;
48042;SDS011;33988;47.992;8.820;2022-08-26T17:28:57;3.38;;;3.08;;
48042;SDS011;33988;47.992;8.820;2022-08-26T17:31:25;3.53;;;3.22;;
48042;SDS011;33988;47.992;8.820;2022-08-26T17:33:54;3.47;;;3.17;;
48042;SDS011;33988;47.992;8.820;2022-08-26T17:36:22;3.22;;;2.92;;
48042;SDS011;33988;47.992;8.820;2022-08-26T17:38:53;5.32;;;3.45;;
48042;SDS011;33988;47.992;8.820;2022-08-26T17:41:23;3.47;;;3.17;;
48042;SDS011;33988;47.992;8.820;2022-08-26T17:43:55;5.15;;;3.30;;